Algiers Airport, Algeria

11:14 AM CET on August 31, 2014 (GMT +0100)
Houari Boumediene | Change Station
CLOSE
Current Station
Airport
Location: Algiers Airport,
Elevation: 82 ft
Nearby Weather Stations

Elev 82 ft 36.69 °N, 3.22 °E | Updated 14 minutes ago

Scattered Clouds
Scattered Clouds
84 °F
Feels Like 90 °F
N
4
Wind Variable Wind from NW

Today
High -- | Low -- °F
--% Chance of Precip.
Yesterday
High -- | Low -- °F
Precip. -- in
6:17 AM 7:17 PM
Waxing Crescent, 29% visible
Pressure 30.01 in
Visibility 6.2 miles
Clouds Scattered Clouds 2300 ft
Heat Index 90 °F
Dew Point 72 °F
Humidity 66%
Rainfall 0.00 in
Snow Depth Not available.
UV 7 out of 12
Pollen Not available.
Air Quality Not available.
Flu Activity Not available.
METAR DAAG 311000Z 32003KT 240V040 9999 SCT023 29/22 Q1016

More Conditions Fewer Conditions

Pressure 30.01 in
Visibility 6.2 miles
Clouds Scattered Clouds 2300 ft
Heat Index 90 °F
Dew Point 72 °F
Humidity 66%
Rainfall 0.00 in
Snow Depth Not available.
UV 7 out of 12
Pollen Not available.
Air Quality Not available.
Flu Activity Not available.
METAR DAAG 311000Z 32003KT 240V040 9999 SCT023 29/22 Q1016

More Conditions Fewer Conditions

10-Day Weather Forecast

Almanac

Astronomy

Aug. 31, 2014 Rise Set
Actual Time 6:17 AM CET 7:17 PM CET
Civil Twilight 5:50 AM CET 7:43 PM CET
Nautical Twilight 5:19 AM CET 8:14 PM CET
Astronomical Twilight 4:46 AM CET 8:47 PM CET
Moon 11:39 AM CET 10:30 PM CET
Length of Visible Light 13h 52m
Length of Day
12h 59m
Tomorrow will be 2m 14s shorter.
Waxing Crescent, 29% of the Moon is Illuminated
Today
Waxing Crescent
Sep 2
First Quarter
Sep 8
Full
Sep 15
Last Quarter
Sep 24
New

Yesterday's Extremes

Country Highs Country Lows

Community

WunderPhotos

Upload Photos

1,748,834 photos uploaded!

Nearby

Snow Depth

Not available.

Earthquake Activity

City Distance Mag. Time & Date
No recent earthquake activity has been reported nearby.
Minimum magnitude displayed is 2.5.

Coastal Water Temperatures

Place Temperature
No Stations Reporting

Nearby Weather Stations